sensor_id;sensor_type;location;lat;lon;timestamp;pressure;altitude;pressure_sealevel;temperature;humidity
69796;BME280;57073;45.650;9.612;2023-03-07T00:02:20;98099.34;;;6.71;57.01
69796;BME280;57073;45.650;9.612;2023-03-07T00:07:21;98098.41;;;6.77;56.53
69796;BME280;57073;45.650;9.612;2023-03-07T00:12:21;98094.00;;;6.71;56.41
69796;BME280;57073;45.650;9.612;2023-03-07T00:17:22;98090.75;;;6.69;56.34
69796;BME280;57073;45.650;9.612;2023-03-07T00:22:22;98098.34;;;6.60;56.32
69796;BME280;57073;45.650;9.612;2023-03-07T00:27:22;98088.47;;;6.61;56.47
69796;BME280;57073;45.650;9.612;2023-03-07T00:32:23;98084.72;;;6.62;56.04
69796;BME280;57073;45.650;9.612;2023-03-07T00:37:24;98083.25;;;6.54;56.50
69796;BME280;57073;45.650;9.612;2023-03-07T00:42:24;98072.41;;;6.61;56.72
69796;BME280;57073;45.650;9.612;2023-03-07T00:47:25;98077.09;;;6.54;57.57
69796;BME280;57073;45.650;9.612;2023-03-07T00:52:25;98063.84;;;6.47;56.71
69796;BME280;57073;45.650;9.612;2023-03-07T00:57:25;98063.38;;;6.50;56.80
69796;BME280;57073;45.650;9.612;2023-03-07T01:02:25;98054.81;;;6.53;56.41
69796;BME280;57073;45.650;9.612;2023-03-07T01:07:26;98060.72;;;6.38;56.94
69796;BME280;57073;45.650;9.612;2023-03-07T01:12:26;98062.59;;;6.38;56.76
69796;BME280;57073;45.650;9.612;2023-03-07T01:17:27;98051.69;;;6.28;57.17
69796;BME280;57073;45.650;9.612;2023-03-07T01:22:27;98053.16;;;6.35;56.76
69796;BME280;57073;45.650;9.612;2023-03-07T01:27:27;98050.13;;;6.15;57.50
69796;BME280;57073;45.650;9.612;2023-03-07T01:32:28;98049.06;;;6.16;57.53
69796;BME280;57073;45.650;9.612;2023-03-07T01:37:28;98041.97;;;6.10;56.83
69796;BME280;57073;45.650;9.612;2023-03-07T01:42:29;98025.63;;;5.94;57.55
69796;BME280;57073;45.650;9.612;2023-03-07T01:47:31;98010.03;;;6.03;57.77
69796;BME280;57073;45.650;9.612;2023-03-07T01:52:36;98013.94;;;6.12;57.76
69796;BME280;57073;45.650;9.612;2023-03-07T01:57:41;98025.91;;;6.10;57.17
69796;BME280;57073;45.650;9.612;2023-03-07T02:02:44;98022.91;;;6.06;56.66
69796;BME280;57073;45.650;9.612;2023-03-07T02:07:48;98026.22;;;5.96;57.16
69796;BME280;57073;45.650;9.612;2023-03-07T02:12:52;98019.31;;;6.00;56.78
69796;BME280;57073;45.650;9.612;2023-03-07T02:17:53;98012.03;;;5.96;57.46
69796;BME280;57073;45.650;9.612;2023-03-07T02:22:54;98011.69;;;5.92;57.93
69796;BME280;57073;45.650;9.612;2023-03-07T02:27:57;98007.81;;;6.00;57.35
69796;BME280;57073;45.650;9.612;2023-03-07T02:32:58;98008.06;;;5.98;58.32
69796;BME280;57073;45.650;9.612;2023-03-07T02:38:00;97999.41;;;6.08;58.15
69796;BME280;57073;45.650;9.612;2023-03-07T02:43:02;97998.13;;;6.11;57.55
69796;BME280;57073;45.650;9.612;2023-03-07T02:48:08;97991.47;;;6.13;57.53
69796;BME280;57073;45.650;9.612;2023-03-07T02:53:09;97991.53;;;6.01;58.19
69796;BME280;57073;45.650;9.612;2023-03-07T02:58:09;97997.91;;;6.00;57.57
69796;BME280;57073;45.650;9.612;2023-03-07T03:03:09;97997.63;;;5.85;57.40
69796;BME280;57073;45.650;9.612;2023-03-07T03:08:11;97993.31;;;5.84;57.68
69796;BME280;57073;45.650;9.612;2023-03-07T03:13:11;97996.38;;;5.76;57.32
69796;BME280;57073;45.650;9.612;2023-03-07T03:18:12;97995.09;;;5.78;57.74
69796;BME280;57073;45.650;9.612;2023-03-07T03:23:13;97985.97;;;5.91;57.91
69796;BME280;57073;45.650;9.612;2023-03-07T03:28:13;97989.72;;;5.90;57.89
69796;BME280;57073;45.650;9.612;2023-03-07T03:33:13;98001.59;;;5.82;58.17
69796;BME280;57073;45.650;9.612;2023-03-07T03:38:14;97997.06;;;5.83;57.87
69796;BME280;57073;45.650;9.612;2023-03-07T03:43:14;98000.00;;;5.70;57.58
69796;BME280;57073;45.650;9.612;2023-03-07T03:48:15;97997.81;;;5.67;58.02
69796;BME280;57073;45.650;9.612;2023-03-07T03:53:15;97999.41;;;5.68;57.60
69796;BME280;57073;45.650;9.612;2023-03-07T03:58:16;98003.84;;;5.74;57.61
69796;BME280;57073;45.650;9.612;2023-03-07T04:03:17;98004.78;;;5.68;59.12
69796;BME280;57073;45.650;9.612;2023-03-07T04:08:17;97998.16;;;5.70;58.49
69796;BME280;57073;45.650;9.612;2023-03-07T04:13:17;98001.06;;;5.69;57.61
69796;BME280;57073;45.650;9.612;2023-03-07T04:18:18;97999.41;;;5.68;57.46
69796;BME280;57073;45.650;9.612;2023-03-07T04:23:19;98001.06;;;5.69;57.58
69796;BME280;57073;45.650;9.612;2023-03-07T04:28:22;97997.47;;;5.51;58.28
69796;BME280;57073;45.650;9.612;2023-03-07T04:33:23;97999.25;;;5.46;58.89
69796;BME280;57073;45.650;9.612;2023-03-07T04:38:26;98010.38;;;5.54;58.60
69796;BME280;57073;45.650;9.612;2023-03-07T04:43:26;98005.16;;;5.59;58.62
69796;BME280;57073;45.650;9.612;2023-03-07T04:48:27;97997.69;;;5.61;57.77
69796;BME280;57073;45.650;9.612;2023-03-07T04:53:27;98012.78;;;5.68;58.27
69796;BME280;57073;45.650;9.612;2023-03-07T04:58:28;98017.09;;;5.69;57.87
69796;BME280;57073;45.650;9.612;2023-03-07T05:03:30;98016.97;;;5.75;58.08
69796;BME280;57073;45.650;9.612;2023-03-07T05:08:31;98012.28;;;5.82;57.29
69796;BME280;57073;45.650;9.612;2023-03-07T05:13:32;98009.50;;;5.77;57.70
69796;BME280;57073;45.650;9.612;2023-03-07T05:18:32;98010.81;;;5.75;57.77
69796;BME280;57073;45.650;9.612;2023-03-07T05:23:32;98017.09;;;5.69;58.27
69796;BME280;57073;45.650;9.612;2023-03-07T05:28:33;98016.03;;;5.70;57.98
69796;BME280;57073;45.650;9.612;2023-03-07T05:33:33;98022.06;;;5.77;57.01
69796;BME280;57073;45.650;9.612;2023-03-07T05:38:34;98019.16;;;5.90;56.73
69796;BME280;57073;45.650;9.612;2023-03-07T05:43:34;98007.44;;;5.79;56.61
69796;BME280;57073;45.650;9.612;2023-03-07T05:48:35;98023.19;;;5.93;56.55
69796;BME280;57073;45.650;9.612;2023-03-07T05:53:35;98015.16;;;5.93;56.21
69796;BME280;57073;45.650;9.612;2023-03-07T05:58:35;98017.16;;;5.97;56.22
69796;BME280;57073;45.650;9.612;2023-03-07T06:03:36;98015.16;;;6.05;55.87
69796;BME280;57073;45.650;9.612;2023-03-07T06:08:36;98020.44;;;6.16;55.72
69796;BME280;57073;45.650;9.612;2023-03-07T06:13:37;98027.16;;;6.19;54.82
69796;BME280;57073;45.650;9.612;2023-03-07T06:18:37;98029.47;;;6.27;55.36
69796;BME280;57073;45.650;9.612;2023-03-07T06:23:37;98037.28;;;6.46;54.56
69796;BME280;57073;45.650;9.612;2023-03-07T06:28:39;98034.47;;;6.52;54.20
69796;BME280;57073;45.650;9.612;2023-03-07T06:33:40;98024.31;;;6.54;54.02
69796;BME280;57073;45.650;9.612;2023-03-07T06:38:41;98028.22;;;6.64;53.91
69796;BME280;57073;45.650;9.612;2023-03-07T06:43:41;98031.16;;;6.62;53.64
69796;BME280;57073;45.650;9.612;2023-03-07T06:48:41;98028.56;;;6.67;53.32
69796;BME280;57073;45.650;9.612;2023-03-07T06:53:42;98032.47;;;6.76;53.25
69796;BME280;57073;45.650;9.612;2023-03-07T06:58:42;98027.56;;;6.73;53.40
69796;BME280;57073;45.650;9.612;2023-03-07T07:03:43;98031.81;;;6.69;53.11
69796;BME280;57073;45.650;9.612;2023-03-07T07:08:44;98030.84;;;6.75;52.98
69796;BME280;57073;45.650;9.612;2023-03-07T07:13:44;98039.03;;;6.86;52.88
69796;BME280;57073;45.650;9.612;2023-03-07T07:18:45;98037.00;;;6.76;53.04
69796;BME280;57073;45.650;9.612;2023-03-07T07:23:45;98034.75;;;6.85;52.59
69796;BME280;57073;45.650;9.612;2023-03-07T07:28:45;98046.81;;;7.04;52.79
69796;BME280;57073;45.650;9.612;2023-03-07T07:33:46;98052.28;;;6.92;52.38
69796;BME280;57073;45.650;9.612;2023-03-07T07:38:47;98059.28;;;7.10;52.60
69796;BME280;57073;45.650;9.612;2023-03-07T07:43:47;98057.88;;;7.25;52.44
69796;BME280;57073;45.650;9.612;2023-03-07T07:48:49;98058.84;;;7.18;52.00
69796;BME280;57073;45.650;9.612;2023-03-07T07:53:49;98058.38;;;7.22;52.01
69796;BME280;57073;45.650;9.612;2023-03-07T07:58:50;98065.53;;;7.16;51.98
69796;BME280;57073;45.650;9.612;2023-03-07T08:03:51;98072.53;;;7.34;51.49
69796;BME280;57073;45.650;9.612;2023-03-07T08:08:51;98072.25;;;7.52;51.80
69796;BME280;57073;45.650;9.612;2023-03-07T08:13:52;98076.28;;;7.72;51.59
69796;BME280;57073;45.650;9.612;2023-03-07T08:18:54;98078.28;;;7.82;51.16
69796;BME280;57073;45.650;9.612;2023-03-07T08:23:55;98080.63;;;7.95;50.64
69796;BME280;57073;45.650;9.612;2023-03-07T08:28:56;98081.59;;;8.11;51.15
69796;BME280;57073;45.650;9.612;2023-03-07T08:33:57;98084.91;;;8.18;50.63
69796;BME280;57073;45.650;9.612;2023-03-07T08:38:57;98091.19;;;8.29;50.91
69796;BME280;57073;45.650;9.612;2023-03-07T08:43:58;98083.63;;;8.48;50.52
69796;BME280;57073;45.650;9.612;2023-03-07T08:48:58;98094.38;;;8.75;50.42
69796;BME280;57073;45.650;9.612;2023-03-07T08:53:58;98093.53;;;8.97;50.81
69796;BME280;57073;45.650;9.612;2023-03-07T08:58:59;98094.41;;;9.02;50.44
69796;BME280;57073;45.650;9.612;2023-03-07T09:03:59;98099.47;;;9.31;50.58
69796;BME280;57073;45.650;9.612;2023-03-07T09:08:59;98095.28;;;9.51;50.47
69796;BME280;57073;45.650;9.612;2023-03-07T09:14:00;98081.72;;;9.78;49.98
69796;BME280;57073;45.650;9.612;2023-03-07T09:19:00;98072.69;;;10.04;50.72
69796;BME280;57073;45.650;9.612;2023-03-07T09:24:00;98080.38;;;10.33;50.63
69796;BME280;57073;45.650;9.612;2023-03-07T09:29:01;98079.84;;;10.47;49.64
69796;BME280;57073;45.650;9.612;2023-03-07T09:34:01;98087.97;;;10.57;49.86
69796;BME280;57073;45.650;9.612;2023-03-07T09:39:03;98086.38;;;10.66;50.05
69796;BME280;57073;45.650;9.612;2023-03-07T09:49:33;98091.25;;;10.90;50.42
69796;BME280;57073;45.650;9.612;2023-03-07T09:54:44;98084.81;;;11.06;49.61
69796;BME280;57073;45.650;9.612;2023-03-07T09:59:48;98084.00;;;11.16;49.25
69796;BME280;57073;45.650;9.612;2023-03-07T10:10:11;98067.78;;;11.31;48.81
69796;BME280;57073;45.650;9.612;2023-03-07T10:15:47;98074.03;;;11.22;47.74
69796;BME280;57073;45.650;9.612;2023-03-07T10:26:32;98059.19;;;10.93;47.96
69796;BME280;57073;45.650;9.612;2023-03-07T10:31:37;98053.22;;;11.27;48.35
69796;BME280;57073;45.650;9.612;2023-03-07T10:36:44;98053.22;;;11.22;48.30
69796;BME280;57073;45.650;9.612;2023-03-07T10:41:46;98051.06;;;11.14;48.02
69796;BME280;57073;45.650;9.612;2023-03-07T10:46:50;98034.34;;;11.32;48.02
69796;BME280;57073;45.650;9.612;2023-03-07T10:52:00;98023.56;;;11.32;47.36
69796;BME280;57073;45.650;9.612;2023-03-07T10:57:14;98037.53;;;11.50;47.36
69796;BME280;57073;45.650;9.612;2023-03-07T11:02:42;98038.06;;;11.62;47.11
69796;BME280;57073;45.650;9.612;2023-03-07T11:07:46;98025.09;;;11.64;45.64
69796;BME280;57073;45.650;9.612;2023-03-07T11:12:46;98019.44;;;11.71;46.82
69796;BME280;57073;45.650;9.612;2023-03-07T11:17:47;98008.03;;;11.79;46.19
69796;BME280;57073;45.650;9.612;2023-03-07T11:22:49;98011.50;;;11.95;46.79
69796;BME280;57073;45.650;9.612;2023-03-07T11:27:53;98001.28;;;11.87;46.04
69796;BME280;57073;45.650;9.612;2023-03-07T11:33:29;97997.50;;;11.83;45.74
69796;BME280;57073;45.650;9.612;2023-03-07T11:49:20;97983.94;;;11.93;43.29
69796;BME280;57073;45.650;9.612;2023-03-07T12:11:38;97951.56;;;11.88;44.16
69796;BME280;57073;45.650;9.612;2023-03-07T12:16:55;97961.31;;;11.84;44.03
69796;BME280;57073;45.650;9.612;2023-03-07T12:27:38;97955.63;;;11.90;44.44
69796;BME280;57073;45.650;9.612;2023-03-07T12:32:40;97961.78;;;11.96;45.03
69796;BME280;57073;45.650;9.612;2023-03-07T12:37:47;97951.00;;;11.91;44.38
69796;BME280;57073;45.650;9.612;2023-03-07T12:43:14;97956.72;;;11.84;44.49
69796;BME280;57073;45.650;9.612;2023-03-07T12:48:40;97949.03;;;12.07;44.80
69796;BME280;57073;45.650;9.612;2023-03-07T12:59:11;97942.22;;;12.14;44.91
69796;BME280;57073;45.650;9.612;2023-03-07T13:09:19;97921.06;;;12.27;44.67
69796;BME280;57073;45.650;9.612;2023-03-07T13:14:43;97905.66;;;12.27;44.70
69796;BME280;57073;45.650;9.612;2023-03-07T13:19:57;97909.13;;;12.33;44.10
69796;BME280;57073;45.650;9.612;2023-03-07T13:30:27;97917.72;;;12.40;43.50
69796;BME280;57073;45.650;9.612;2023-03-07T13:56:17;97893.91;;;12.42;43.11
69796;BME280;57073;45.650;9.612;2023-03-07T14:01:28;97899.09;;;12.33;43.16
69796;BME280;57073;45.650;9.612;2023-03-07T14:06:42;97896.00;;;12.50;43.01
69796;BME280;57073;45.650;9.612;2023-03-07T14:22:30;97885.19;;;12.21;41.19
69796;BME280;57073;45.650;9.612;2023-03-07T14:28:25;97870.22;;;11.94;40.50
69796;BME280;57073;45.650;9.612;2023-03-07T14:33:34;97861.41;;;12.18;41.03
69796;BME280;57073;45.650;9.612;2023-03-07T14:38:35;97830.75;;;12.33;41.71
69796;BME280;57073;45.650;9.612;2023-03-07T14:54:10;97829.19;;;12.27;41.81
69796;BME280;57073;45.650;9.612;2023-03-07T14:59:12;97828.97;;;12.18;42.00
69796;BME280;57073;45.650;9.612;2023-03-07T15:09:24;97840.63;;;12.13;42.33
69796;BME280;57073;45.650;9.612;2023-03-07T15:14:29;97831.94;;;12.22;42.17
69796;BME280;57073;45.650;9.612;2023-03-07T15:19:44;97839.03;;;12.12;40.92
69796;BME280;57073;45.650;9.612;2023-03-07T15:24:47;97845.59;;;12.01;40.50
69796;BME280;57073;45.650;9.612;2023-03-07T15:29:49;97856.44;;;11.96;40.51
69796;BME280;57073;45.650;9.612;2023-03-07T15:34:58;97821.59;;;11.94;41.02
69796;BME280;57073;45.650;9.612;2023-03-07T15:40:21;97846.75;;;11.90;41.07
69796;BME280;57073;45.650;9.612;2023-03-07T15:45:37;97849.25;;;11.81;40.56
69796;BME280;57073;45.650;9.612;2023-03-07T15:50:38;97842.22;;;11.80;41.14
69796;BME280;57073;45.650;9.612;2023-03-07T15:55:38;97853.81;;;11.81;41.33
69796;BME280;57073;45.650;9.612;2023-03-07T16:00:40;97854.97;;;11.74;40.99
69796;BME280;57073;45.650;9.612;2023-03-07T16:05:41;97849.06;;;11.67;41.97
69796;BME280;57073;45.650;9.612;2023-03-07T16:10:51;97844.22;;;11.64;42.55
69796;BME280;57073;45.650;9.612;2023-03-07T16:16:13;97845.34;;;11.58;42.11
69796;BME280;57073;45.650;9.612;2023-03-07T16:21:17;97838.88;;;11.49;42.66
69796;BME280;57073;45.650;9.612;2023-03-07T16:26:20;97852.94;;;11.41;42.68
69796;BME280;57073;45.650;9.612;2023-03-07T16:31:21;97844.34;;;11.28;42.83
69796;BME280;57073;45.650;9.612;2023-03-07T16:36:21;97847.38;;;11.16;42.99
69796;BME280;57073;45.650;9.612;2023-03-07T16:41:21;97845.53;;;11.07;42.82
69796;BME280;57073;45.650;9.612;2023-03-07T16:46:22;97833.69;;;11.03;42.83
69796;BME280;57073;45.650;9.612;2023-03-07T16:51:24;97836.94;;;10.99;43.21
69796;BME280;57073;45.650;9.612;2023-03-07T16:56:33;97842.88;;;11.02;43.60
69796;BME280;57073;45.650;9.612;2023-03-07T17:01:36;97848.53;;;10.95;43.74
69796;BME280;57073;45.650;9.612;2023-03-07T17:06:38;97855.56;;;10.91;43.26
69796;BME280;57073;45.650;9.612;2023-03-07T17:11:46;97850.19;;;10.86;43.72
69796;BME280;57073;45.650;9.612;2023-03-07T17:16:49;97854.78;;;10.85;44.44
69796;BME280;57073;45.650;9.612;2023-03-07T17:21:49;97863.41;;;10.87;43.96
69796;BME280;57073;45.650;9.612;2023-03-07T17:26:50;97868.78;;;10.87;44.10
69796;BME280;57073;45.650;9.612;2023-03-07T17:31:52;97871.50;;;10.82;44.77
69796;BME280;57073;45.650;9.612;2023-03-07T17:36:53;97884.97;;;10.82;44.42
69796;BME280;57073;45.650;9.612;2023-03-07T17:41:53;97891.44;;;10.81;44.28
69796;BME280;57073;45.650;9.612;2023-03-07T17:46:54;97908.44;;;10.76;44.84
69796;BME280;57073;45.650;9.612;2023-03-07T17:51:54;97900.91;;;10.73;44.54
69796;BME280;57073;45.650;9.612;2023-03-07T17:56:55;97911.16;;;10.71;44.51
69796;BME280;57073;45.650;9.612;2023-03-07T18:01:56;97904.44;;;10.69;44.78
69796;BME280;57073;45.650;9.612;2023-03-07T18:06:58;97922.72;;;10.67;44.47
69796;BME280;57073;45.650;9.612;2023-03-07T18:11:58;97922.19;;;10.65;43.94
69796;BME280;57073;45.650;9.612;2023-03-07T18:16:59;97921.69;;;10.47;43.69
69796;BME280;57073;45.650;9.612;2023-03-07T18:21:59;97926.25;;;10.36;44.26
69796;BME280;57073;45.650;9.612;2023-03-07T18:27:00;97938.38;;;10.49;43.35
69796;BME280;57073;45.650;9.612;2023-03-07T18:32:01;97940.28;;;10.64;44.13
69796;BME280;57073;45.650;9.612;2023-03-07T18:37:02;97921.41;;;10.59;43.28
69796;BME280;57073;45.650;9.612;2023-03-07T18:42:03;97929.75;;;10.68;43.38
69796;BME280;57073;45.650;9.612;2023-03-07T18:47:03;97930.03;;;10.71;43.83
69796;BME280;57073;45.650;9.612;2023-03-07T18:52:03;97932.19;;;10.74;44.70
69796;BME280;57073;45.650;9.612;2023-03-07T18:57:04;97920.34;;;10.65;44.27
69796;BME280;57073;45.650;9.612;2023-03-07T19:02:04;97914.69;;;10.61;44.74
69796;BME280;57073;45.650;9.612;2023-03-07T19:07:05;97924.91;;;10.49;45.35
69796;BME280;57073;45.650;9.612;2023-03-07T19:12:05;97923.28;;;10.43;45.71
69796;BME280;57073;45.650;9.612;2023-03-07T19:17:06;97934.56;;;10.30;46.03
69796;BME280;57073;45.650;9.612;2023-03-07T19:22:06;97934.81;;;10.13;47.88
69796;BME280;57073;45.650;9.612;2023-03-07T19:27:07;97920.53;;;9.97;49.03
69796;BME280;57073;45.650;9.612;2023-03-07T19:32:07;97935.03;;;9.91;50.71
69796;BME280;57073;45.650;9.612;2023-03-07T19:37:08;97926.44;;;9.99;50.57
69796;BME280;57073;45.650;9.612;2023-03-07T19:42:09;97917.28;;;9.90;50.08
69796;BME280;57073;45.650;9.612;2023-03-07T19:47:09;97915.66;;;9.83;49.31
69796;BME280;57073;45.650;9.612;2023-03-07T19:52:10;97908.03;;;9.65;49.54
69796;BME280;57073;45.650;9.612;2023-03-07T19:57:10;97911.75;;;9.38;50.09
69796;BME280;57073;45.650;9.612;2023-03-07T20:02:14;97915.38;;;9.12;50.83
69796;BME280;57073;45.650;9.612;2023-03-07T20:07:14;97928.63;;;8.86;51.44
69796;BME280;57073;45.650;9.612;2023-03-07T20:12:15;97911.97;;;8.89;51.46
69796;BME280;57073;45.650;9.612;2023-03-07T20:17:15;97917.06;;;8.85;51.09
69796;BME280;57073;45.650;9.612;2023-03-07T20:22:16;97917.50;;;8.72;52.00
69796;BME280;57073;45.650;9.612;2023-03-07T20:27:17;97916.63;;;8.61;52.55
69796;BME280;57073;45.650;9.612;2023-03-07T20:32:20;97932.00;;;8.66;52.18
69796;BME280;57073;45.650;9.612;2023-03-07T20:37:21;97928.41;;;8.55;52.36
69796;BME280;57073;45.650;9.612;2023-03-07T20:42:21;97927.78;;;8.43;52.28
69796;BME280;57073;45.650;9.612;2023-03-07T20:47:21;97919.28;;;8.56;51.88
69796;BME280;57073;45.650;9.612;2023-03-07T20:52:22;97921.03;;;8.40;52.15
69796;BME280;57073;45.650;9.612;2023-03-07T20:57:24;97914.00;;;8.34;52.29
69796;BME280;57073;45.650;9.612;2023-03-07T21:02:24;97919.75;;;8.48;52.29
69796;BME280;57073;45.650;9.612;2023-03-07T21:07:25;97918.69;;;8.49;51.74
69796;BME280;57073;45.650;9.612;2023-03-07T21:12:25;97915.50;;;8.52;51.79
69796;BME280;57073;45.650;9.612;2023-03-07T21:17:25;97920.06;;;8.51;52.21
69796;BME280;57073;45.650;9.612;2023-03-07T21:22:26;97915.22;;;8.54;52.46
69796;BME280;57073;45.650;9.612;2023-03-07T21:27:26;97915.09;;;8.38;52.78
69796;BME280;57073;45.650;9.612;2023-03-07T21:32:27;97917.22;;;8.36;53.03
69796;BME280;57073;45.650;9.612;2023-03-07T21:37:27;97933.78;;;8.55;52.34
69796;BME280;57073;45.650;9.612;2023-03-07T21:42:27;97921.25;;;8.71;52.13
69796;BME280;57073;45.650;9.612;2023-03-07T21:47:28;97926.63;;;8.66;52.07
69796;BME280;57073;45.650;9.612;2023-03-07T21:52:28;97918.22;;;8.57;52.49
69796;BME280;57073;45.650;9.612;2023-03-07T21:57:29;97925.59;;;8.40;53.18
69796;BME280;57073;45.650;9.612;2023-03-07T22:02:29;97945.50;;;8.44;53.13
69796;BME280;57073;45.650;9.612;2023-03-07T22:07:30;97933.09;;;8.38;53.22
69796;BME280;57073;45.650;9.612;2023-03-07T22:12:30;97941.34;;;8.63;53.44
69796;BME280;57073;45.650;9.612;2023-03-07T22:17:31;97933.69;;;8.45;54.69
69796;BME280;57073;45.650;9.612;2023-03-07T22:22:32;97950.88;;;8.44;54.65
69796;BME280;57073;45.650;9.612;2023-03-07T22:27:33;97951.44;;;8.46;54.99
69796;BME280;57073;45.650;9.612;2023-03-07T22:32:33;97955.72;;;8.47;55.46
69796;BME280;57073;45.650;9.612;2023-03-07T22:37:34;97946.69;;;8.58;56.18
69796;BME280;57073;45.650;9.612;2023-03-07T22:42:34;97937.72;;;8.47;56.24
69796;BME280;57073;45.650;9.612;2023-03-07T22:47:35;97942.09;;;8.54;57.29
69796;BME280;57073;45.650;9.612;2023-03-07T22:52:35;97950.38;;;8.47;57.21
69796;BME280;57073;45.650;9.612;2023-03-07T22:57:35;97952.25;;;8.46;57.83
69796;BME280;57073;45.650;9.612;2023-03-07T23:02:36;97953.78;;;8.37;58.06
69796;BME280;57073;45.650;9.612;2023-03-07T23:07:36;97943.16;;;8.52;57.36
69796;BME280;57073;45.650;9.612;2023-03-07T23:12:36;97957.13;;;8.49;57.03
69796;BME280;57073;45.650;9.612;2023-03-07T23:17:37;97966.41;;;8.37;57.03
69796;BME280;57073;45.650;9.612;2023-03-07T23:22:37;97962.66;;;8.10;57.41
69796;BME280;57073;45.650;9.612;2023-03-07T23:27:39;97973.59;;;8.04;56.84
69796;BME280;57073;45.650;9.612;2023-03-07T23:32:40;97970.72;;;8.10;56.83
69796;BME280;57073;45.650;9.612;2023-03-07T23:37:40;97946.00;;;8.08;56.03
69796;BME280;57073;45.650;9.612;2023-03-07T23:42:41;97942.41;;;7.98;56.38
69796;BME280;57073;45.650;9.612;2023-03-07T23:47:42;97944.78;;;7.94;56.12
69796;BME280;57073;45.650;9.612;2023-03-07T23:52:42;97955.28;;;7.73;56.92
69796;BME280;57073;45.650;9.612;2023-03-07T23:57:42;97967.38;;;7.76;56.90
